Latest Weather Observations for Sydney - Observatory Hill

IDN60901

Issued at 6:41 pm EDT Wednesday 22 January 2020 (issued every 10 minutes, with the page automatically refreshed every 10 minutes)

About weather observations | Map of Sydney area stations | Latest observations for Sydney area | Other Formats
Station Details ID: 066062 Name: SYDNEY (OBSERVATORY HILL) Lat: -33.86 Lon: 151.21 Height: 39.0 m
Data from the previous 72 hours. | See also: Recent months at Sydney - Observatory Hill

* Apparent temperature (App Temp) for Sydney - Observatory Hill is calculated using temperature observations collected at Sydney - Observatory Hill and wind observations collected at Fort Denison, as wind observations are not currently provided for Sydney - Observatory Hill.

Date/Time
EDT
Temp
°C
App
Temp
°C
Dew
Point
°C
Rel
Hum
%
Delta-T
°C
Wind Press
QNH
hPa
Press
MSL
hPa
Rain since
9am
mm
Dir  Spd
km/h
Gust
km/h
Spd
kts
Gust
kts
22/06:30pm 27.4 27.4 21.0 68 4.3 ENE 22 - 12 - 1005.0 1004.8 0.0
22/06:00pm 27.8 26.5 21.3 67 4.3 ENE 30 - 16 - 1005.1 1004.9 0.0
22/05:30pm 28.4 28.1 21.9 68 4.4 ENE 26 - 14 - 1005.4 1005.2 0.0
22/05:00pm 28.1 27.7 21.6 68 4.4 ENE 26 - 14 - 1005.9 1005.7 0.0
22/04:30pm 28.0 28.7 21.5 67 4.3 NE 20 - 11 - 1006.3 1006.1 0.0
22/04:00pm 28.1 26.0 20.6 63 5.0 ENE 32 - 17 - 1006.9 1006.7 0.0
22/03:30pm 27.9 25.6 20.5 64 4.9 E 33 - 18 - 1007.3 1007.1 0.0
22/03:00pm 27.9 26.0 20.2 63 5.1 E 30 - 16 - 1007.7 1007.5 0.0
22/02:30pm 27.9 25.5 19.9 61 5.2 E 32 - 17 - 1008.2 1008.0 0.0
22/02:00pm 28.1 27.7 19.3 58 5.7 E 20 - 11 - 1008.7 1008.5 0.0
22/01:30pm 28.2 28.4 19.4 59 5.7 E 17 - 9 - 1009.2 1009.0 0.0
22/01:00pm 27.8 27.4 19.3 60 5.5 E 20 - 11 - 1009.7 1009.5 0.0
22/12:30pm 27.6 26.6 18.9 59 5.6 E 22 - 12 - 1010.0 1009.8 0.0
22/12:00pm 27.9 26.4 18.6 57 6.0 E 24 - 13 - 1010.2 1010.0 0.0
22/11:30am 28.0 26.8 18.4 56 6.1 E 22 - 12 - 1010.6 1010.4 0.0
22/11:00am 28.1 26.9 18.5 56 6.2 E 22 - 12 - 1010.9 1010.7 0.0
22/10:30am 27.9 26.9 18.0 55 6.3 E 20 - 11 - 1011.2 1011.0 0.0
22/10:00am 27.9 29.3 17.7 53 6.5 ESE 7 - 4 - 1011.4 1011.3 0.0
22/09:30am 26.4 28.8 18.0 60 5.3 ESE 2 - 1 - 1011.6 1011.5 0.0
22/09:00am 25.5 27.0 17.7 62 4.9 WNW 6 - 3 - 1011.7 1011.6 0.2
22/08:30am 23.8 24.7 17.5 68 3.9 W 9 - 5 - 1011.8 1011.7 0.2
22/08:00am 22.2 22.6 17.3 74 3.0 W 11 - 6 - 1011.7 1011.6 0.2
22/07:30am 21.2 22.6 17.8 81 2.1 WNW 7 - 4 - 1011.4 1011.3 0.2
22/07:00am 20.6 21.9 17.2 81 2.1 WNW 6 - 3 - 1011.2 1011.0 0.2
22/06:30am 20.5 21.2 17.1 81 2.1 WNW 9 - 5 - 1010.9 1010.7 0.2
22/06:00am 20.5 21.6 17.1 81 2.1 WNW 7 - 4 - 1010.8 1010.6 0.2
22/05:30am 20.8 22.0 17.4 81 2.1 WNW 7 - 4 - 1010.7 1010.5 0.2
22/05:00am 21.0 22.5 17.6 81 2.1 WNW 6 - 3 - 1010.6 1010.4 0.2
22/04:30am 21.0 22.2 17.4 80 2.2 WNW 7 - 4 - 1010.3 1010.1 0.2
22/04:00am 21.1 23.2 17.3 79 2.3 NNW 2 - 1 - 1010.3 1010.1 0.2
22/03:30am 21.3 22.7 17.3 78 2.5 WNW 6 - 3 - 1010.4 1010.2 0.2
22/03:00am 21.6 23.9 17.6 78 2.5 N 2 - 1 - 1010.6 1010.4 0.2
22/02:30am 21.8 24.1 17.8 78 2.5 NW 2 - 1 - 1010.7 1010.5 0.2
22/02:00am 22.0 24.3 17.8 77 2.6 WSW 2 - 1 - 1011.0 1010.8 0.2
22/01:30am 22.3 24.8 18.1 77 2.6 NNW 2 - 1 - 1011.3 1011.1 0.2
22/01:00am 22.3 24.9 17.4 74 3.0 CALM 0 - 0 - 1011.2 1011.0 0.2
22/12:30am 22.6 24.7 17.3 72 3.3 N 2 - 1 - 1011.4 1011.3 0.2
22/12:00am 23.0 25.4 17.0 69 3.7 CALM 0 - 0 - 1011.4 1011.3 0.2
 
Date/Time
EDT
Temp
°C
App
Temp
°C
Dew
Point
°C
Rel
Hum
%
Delta-T
°C
Wind Press
QNH
hPa
Press
MSL
hPa
Rain since
9am
mm
Dir  Spd
km/h
Gust
km/h
Spd
kts
Gust
kts
21/11:30pm 23.3 25.0 16.1 64 4.4 WSW 2 - 1 - 1011.5 1011.4 0.2
21/11:00pm 23.7 25.5 16.5 64 4.4 SW 2 - 1 - 1011.3 1011.1 0.2
21/10:30pm 23.8 26.0 16.6 64 4.4 CALM 0 - 0 - 1011.1 1010.9 0.2
21/10:00pm 24.2 26.4 16.5 62 4.7 CALM 0 - 0 - 1010.9 1010.7 0.2
21/09:30pm 24.4 25.3 16.1 60 5.1 ESE 6 - 3 - 1010.5 1010.3 0.2
21/09:00pm 24.5 25.2 16.2 60 5.1 ESE 7 - 4 - 1009.9 1009.7 0.2
21/08:30pm 24.5 24.6 16.5 61 4.9 ESE 11 - 6 - 1009.5 1009.3 0.2
21/08:00pm 24.7 24.7 16.2 59 5.2 ESE 11 - 6 - 1009.1 1008.9 0.2
21/07:30pm 25.0 23.7 15.9 57 5.5 E 17 - 9 - 1008.6 1008.4 0.2
21/07:00pm 25.4 23.4 15.4 54 6.1 ESE 20 - 11 - 1008.1 1007.9 0.2
21/06:30pm 25.6 22.9 14.7 51 6.5 E 22 - 12 - 1007.6 1007.4 0.2
21/06:00pm 26.3 23.5 14.4 48 7.1 ESE 22 - 12 - 1007.2 1007.0 0.2
21/05:30pm 26.7 23.7 13.8 45 7.7 ESE 22 - 12 - 1007.2 1007.0 0.2
21/05:00pm 26.9 23.4 13.3 43 8.0 ESE 24 - 13 - 1007.0 1006.8 0.2
21/04:30pm 27.1 23.9 13.1 42 8.2 ESE 22 - 12 - 1006.8 1006.6 0.2
21/04:00pm 29.1 24.7 11.6 33 10.1 ESE 26 - 14 - 1006.8 1006.6 0.2
21/03:30pm 28.3 23.4 10.0 32 10.3 ESE 26 - 14 - 1006.8 1006.6 0.2
21/03:00pm 29.7 25.1 11.2 31 10.7 ESE 26 - 14 - 1006.8 1006.6 0.2
21/02:30pm 30.5 26.0 11.5 31 11.0 SE 26 - 14 - 1006.7 1006.5 0.2
21/02:00pm 30.6 26.4 11.1 30 11.3 SE 24 - 13 - 1006.7 1006.5 0.2
21/01:30pm 31.3 27.0 10.6 28 11.9 ESE 24 - 13 - 1007.0 1006.8 0.2
21/01:00pm 31.1 30.3 11.0 29 11.6 SSW 6 - 3 - 1007.3 1007.1 0.2
21/12:30pm 30.1 28.5 10.1 29 11.3 WSW 9 - 5 - 1007.6 1007.4 0.2
21/12:00pm 29.9 28.4 10.5 30 11.1 W 9 - 5 - 1007.7 1007.5 0.2
21/11:30am 28.9 26.5 10.1 31 10.6 WSW 13 - 7 - 1007.9 1007.7 0.2
21/11:00am 28.4 25.2 10.1 32 10.3 W 17 - 9 - 1007.8 1007.6 0.2
21/10:30am 27.6 26.5 9.9 33 9.9 SSW 6 - 3 - 1007.7 1007.5 0.2
21/10:00am 27.1 24.5 9.5 33 9.8 W 13 - 7 - 1007.6 1007.4 0.2
21/09:30am 26.5 23.3 9.8 35 9.3 WNW 17 - 9 - 1007.4 1007.2 0.2
21/09:00am 25.9 22.6 9.7 36 9.0 WNW 17 - 9 - 1007.2 1007.0 2.6
21/08:30am 24.8 21.9 12.4 46 7.1 NW 19 - 10 - 1006.9 1006.7 2.6
21/08:00am 22.8 21.5 12.4 52 5.9 WNW 11 - 6 - 1006.5 1006.3 2.6
21/07:30am 20.9 20.4 13.8 64 4.1 W 9 - 5 - 1006.1 1005.9 2.6
21/07:00am 20.2 20.1 13.9 67 3.6 WNW 7 - 4 - 1005.9 1005.7 2.6
21/06:30am 20.0 20.1 13.9 68 3.5 NW 6 - 3 - 1005.6 1005.4 2.6
21/06:00am 19.9 19.4 13.8 68 3.5 W 9 - 5 - 1005.1 1004.9 2.6
21/05:30am 20.2 20.4 14.6 70 3.3 W 7 - 4 - 1004.6 1004.4 2.6
21/05:00am 19.9 20.3 15.3 75 2.7 W 7 - 4 - 1004.3 1004.1 2.6
21/04:30am 20.1 21.2 15.7 76 2.6 W 4 - 2 - 1004.0 1003.8 2.6
21/04:00am 20.2 21.0 15.8 76 2.6 N 6 - 3 - 1004.0 1003.8 2.6
21/03:30am 20.2 21.1 16.0 77 2.5 NNW 6 - 3 - 1004.1 1003.9 2.6
21/03:00am 20.2 21.4 16.0 77 2.5 N 4 - 2 - 1003.9 1003.7 2.6
21/02:30am 20.3 21.4 16.5 79 2.3 NNW 6 - 3 - 1003.8 1003.6 2.6
21/02:00am 20.8 21.1 17.0 79 2.3 WNW 11 - 6 - 1003.6 1003.4 2.6
21/01:30am 20.5 21.4 16.7 79 2.3 W 7 - 4 - 1003.8 1003.6 2.6
21/01:00am 20.9 21.3 17.3 80 2.2 WNW 11 - 6 - 1004.0 1003.8 2.6
21/12:30am 21.1 22.6 17.5 80 2.2 NW 6 - 3 - 1004.2 1004.0 2.6
21/12:00am 21.3 23.5 17.5 79 2.4 W 2 - 1 - 1004.2 1004.0 2.6
 
Date/Time
EDT
Temp
°C
App
Temp
°C
Dew
Point
°C
Rel
Hum
%
Delta-T
°C
Wind Press
QNH
hPa
Press
MSL
hPa
Rain since
9am
mm
Dir  Spd
km/h
Gust
km/h
Spd
kts
Gust
kts
20/11:30pm 21.7 23.2 17.7 78 2.5 NW 6 - 3 - 1004.3 1004.1 2.6
20/11:00pm 22.2 24.2 17.8 76 2.7 WNW 4 - 2 - 1004.2 1004.0 2.6
20/10:30pm 22.7 24.8 18.0 75 2.9 NNE 4 - 2 - 1003.8 1003.6 2.6
20/10:00pm 23.0 25.2 18.3 75 3.0 ENE 4 - 2 - 1003.8 1003.6 2.6
20/09:30pm 23.2 25.7 18.1 73 3.2 ENE 2 - 1 - 1003.4 1003.2 2.6
20/09:00pm 23.3 24.4 16.6 66 4.1 SSE 6 - 3 - 1002.6 1002.4 2.6
20/08:30pm 22.9 23.7 16.4 67 4.0 SSW 7 - 4 - 1001.8 1001.6 2.6
20/08:00pm 22.8 23.2 17.3 71 3.4 S 11 - 6 - 1001.6 1001.4 2.6
20/07:30pm 22.7 21.9 17.2 71 3.4 SSW 17 - 9 - 1000.9 1000.7 2.6
20/07:00pm 23.7 22.2 16.2 63 4.6 SSW 19 - 10 - 1001.2 1001.0 2.0
20/06:30pm 24.9 22.2 16.6 60 5.1 SSW 26 - 14 - 1000.2 1000.0 0.0
20/06:00pm 25.1 24.3 17.1 61 5.0 SSW 17 - 9 - 1000.3 1000.1 0.0
20/05:30pm 26.8 27.2 19.9 66 4.5 S 17 - 9 - 999.7 999.5 0.0
20/05:23pm 26.9 - 20.5 68 4.2 - - - - - 999.7 999.5 0.0
20/05:00pm 27.0 27.5 20.8 69 4.1 ENE 19 - 10 - 997.7 997.5 0.0
20/04:30pm 25.9 26.4 21.1 75 3.2 E 20 - 11 - 999.1 998.9 0.0
20/04:00pm 26.8 26.4 20.9 70 3.9 ENE 24 - 13 - 999.4 999.2 0.0
20/03:30pm 26.9 26.3 21.2 71 3.8 NE 26 - 14 - 999.2 999.0 0.0
20/03:00pm 25.4 25.4 20.9 76 3.0 ENE 22 - 12 - 999.4 999.2 0.0
20/02:30pm 25.8 25.0 20.1 71 3.7 E 24 - 13 - 999.5 999.3 0.0
20/02:00pm 27.0 26.3 20.3 66 4.4 E 24 - 13 - 1000.3 1000.1 0.0
20/01:30pm 26.6 25.5 19.5 65 4.6 E 24 - 13 - 1000.7 1000.5 0.0
20/01:00pm 26.9 26.6 19.5 64 4.8 E 20 - 11 - 1001.7 1001.5 0.0
20/12:30pm 26.6 25.7 19.0 63 4.9 E 22 - 12 - 1002.3 1002.1 0.0
20/12:00pm 25.6 25.5 18.8 66 4.4 ENE 17 - 9 - 1003.1 1002.9 0.0
20/11:30am 26.9 25.9 17.9 57 5.7 E 20 - 11 - 1003.6 1003.4 0.0
20/11:00am 25.8 25.6 17.7 61 5.1 E 15 - 8 - 1003.9 1003.7 0.0
20/10:30am 25.9 24.9 17.5 59 5.3 E 19 - 10 - 1004.0 1003.8 0.0
20/10:00am 26.0 24.9 17.4 59 5.4 E 19 - 10 - 1004.2 1004.0 0.0
20/09:30am 25.5 28.2 17.7 62 4.9 CALM 0 - 0 - 1005.0 1004.8 0.0
20/09:00am 25.4 27.6 18.3 65 4.5 ESE 4 - 2 - 1004.9 1004.7 0.0
20/08:30am 24.4 27.1 18.6 70 3.7 ESE 2 - 1 - 1004.7 1004.5 0.0
20/08:00am 23.3 25.6 18.6 75 3.0 ESE 4 - 2 - 1004.2 1004.0 0.0
20/07:30am 22.1 24.9 18.9 82 2.0 E 2 - 1 - 1004.1 1003.9 0.0
20/07:00am 21.6 23.7 19.0 85 1.6 ENE 6 - 3 - 1004.0 1003.8 0.0
20/06:30am 21.5 23.9 18.9 85 1.6 NE 4 - 2 - 1003.6 1003.4 0.0
20/06:00am 21.2 23.1 18.6 85 1.6 NE 6 - 3 - 1003.2 1003.0 0.0
20/05:30am 20.8 23.2 18.0 84 1.7 NNE 2 - 1 - 1002.5 1002.3 0.0
20/05:00am 21.1 23.6 18.1 83 1.9 NNE 2 - 1 - 1002.5 1002.3 0.0
20/04:30am 21.0 22.8 18.2 84 1.7 SSW 6 - 3 - 1002.3 1002.1 0.0
20/04:00am 21.2 22.9 18.4 84 1.8 NW 7 - 4 - 1003.2 1003.0 0.0
20/03:30am 21.2 22.5 18.4 84 1.8 W 9 - 5 - 1003.4 1003.2 0.0
20/03:00am 21.5 23.0 18.9 85 1.6 NNW 9 - 5 - 1004.0 1003.8 0.0
20/02:30am 21.5 23.6 18.9 85 1.6 NNE 6 - 3 - 1003.3 1003.1 0.0
20/02:00am 21.4 23.4 18.8 85 1.6 NNE 6 - 3 - 1003.6 1003.4 0.0
20/01:30am 21.4 23.3 18.6 84 1.8 NNW 6 - 3 - 1004.0 1003.8 0.0
20/01:00am 21.6 23.3 18.6 83 1.9 WNW 7 - 4 - 1004.5 1004.3 0.0
20/12:30am 21.8 23.3 18.8 83 1.9 WNW 9 - 5 - 1005.5 1005.3 0.0
20/12:00am 21.8 23.8 18.8 83 1.9 WNW 6 - 3 - 1005.6 1005.4 0.0
 
Date/Time
EDT
Temp
°C
App
Temp
°C
Dew
Point
°C
Rel
Hum
%
Delta-T
°C
Wind Press
QNH
hPa
Press
MSL
hPa
Rain since
9am
mm
Dir  Spd
km/h
Gust
km/h
Spd
kts
Gust
kts
19/11:30pm 21.9 23.4 18.9 83 1.9 WNW 9 - 5 - 1005.6 1005.4 0.0
19/11:00pm 22.0 23.9 19.0 83 1.9 WNW 7 - 4 - 1005.6 1005.4 0.0
19/10:30pm 22.1 23.6 18.9 82 2.0 WNW 9 - 5 - 1005.4 1005.2 0.0
19/10:00pm 22.1 24.7 18.5 80 2.3 WNW 2 - 1 - 1005.1 1004.9 0.0
19/09:30pm 22.3 25.0 18.7 80 2.3 W 2 - 1 - 1004.9 1004.7 0.0
19/09:00pm 22.7 25.9 18.9 79 2.4 CALM 0 - 0 - 1005.0 1004.8 0.0
19/08:30pm 22.8 25.3 19.0 79 2.4 ESE 4 - 2 - 1005.0 1004.8 0.0
19/08:00pm 23.1 25.1 18.8 77 2.7 E 6 - 3 - 1004.9 1004.7 0.0
19/07:30pm 23.2 25.0 18.7 76 2.8 ESE 7 - 4 - 1004.7 1004.5 0.0
19/07:00pm 23.5 25.2 18.6 74 3.1 ESE 7 - 4 - 1004.9 1004.7 0.0

Latest Capital City Observations: Canberra | Sydney | Melbourne | Brisbane | Adelaide | Perth | Hobart | Darwin

Other formats

Comma delimited format used in spreadsheet applications
http://www.bom.gov.au/fwo/IDN60901/IDN60901.94768.axf

JavaScript Object Notation format (JSON) in row-major order
http://www.bom.gov.au/fwo/IDN60901/IDN60901.94768.json

Data quality

Most of these data are generated automatically and are frequently updated. Quality checks on data are not normally performed. It is possible for incorrect values to appear. Refer to information at About Latest Weather Observations and please check the disclaimer before using these data.